createdAt,value
2019-03-09T00:01:39.178Z,99874.63
2019-03-09T00:04:08.566Z,99872.84
2019-03-09T00:06:38.085Z,99868.48
2019-03-09T00:09:08.860Z,99866.78
2019-03-09T00:11:38.289Z,99866.23
2019-03-09T00:14:07.679Z,99871.42
2019-03-09T00:16:37.177Z,99867.61
2019-03-09T00:19:06.669Z,99872.97
2019-03-09T00:21:36.154Z,99870.74
2019-03-09T00:24:30.312Z,99872.84
2019-03-09T00:27:14.813Z,99879.99
2019-03-09T00:30:09.431Z,99878.41
2019-03-09T00:32:38.894Z,99875.27
2019-03-09T00:35:08.387Z,99868.64
2019-03-09T00:37:37.878Z,99865.69
2019-03-09T00:40:08.492Z,99868.25
2019-03-09T00:42:38.127Z,99869.61
2019-03-09T00:45:08.487Z,99867.59
2019-03-09T00:47:37.932Z,99871.09
2019-03-09T00:50:07.959Z,99868.17
2019-03-09T00:52:37.449Z,99863.13
2019-03-09T00:55:08.209Z,99861.33
2019-03-09T00:57:37.703Z,99860.98
2019-03-09T01:00:09.838Z,99858.34
2019-03-09T01:02:39.288Z,99857.03
2019-03-09T01:05:09.609Z,99853.69
2019-03-09T01:07:39.064Z,99853.84
2019-03-09T01:10:11.498Z,99852.60
2019-03-09T01:12:41.155Z,99854.69
2019-03-09T01:15:10.923Z,99858.11
2019-03-09T01:17:40.430Z,99855.81
2019-03-09T01:20:12.383Z,99857.20
2019-03-09T01:22:41.954Z,99855.30
2019-03-09T01:25:11.964Z,99853.40
2019-03-09T01:27:41.402Z,99843.70
2019-03-09T01:30:14.591Z,99845.33
2019-03-09T01:32:44.017Z,99845.59
2019-03-09T01:35:13.741Z,99845.16
2019-03-09T01:37:43.231Z,99835.52
2019-03-09T01:40:13.279Z,99836.59
2019-03-09T01:42:42.705Z,99839.11
2019-03-09T01:45:12.878Z,99835.69
2019-03-09T01:47:42.318Z,99841.33
2019-03-09T01:50:12.131Z,99841.18
2019-03-09T01:52:41.611Z,99847.38
2019-03-09T01:55:11.037Z,99854.47
2019-03-09T01:57:40.505Z,99855.54
2019-03-09T02:00:10.427Z,99854.55
2019-03-09T02:02:39.858Z,99862.85
2019-03-09T02:05:10.057Z,99845.70
2019-03-09T02:07:39.527Z,99844.34
2019-03-09T02:10:09.485Z,99852.44
2019-03-09T02:12:38.921Z,99842.89
2019-03-09T02:15:08.754Z,99844.00
2019-03-09T02:17:38.286Z,99838.94
2019-03-09T02:20:07.958Z,99845.53
2019-03-09T02:22:37.445Z,99841.36
2019-03-09T02:25:07.632Z,99843.69
2019-03-09T02:27:37.134Z,99851.27
2019-03-09T02:30:07.065Z,99852.97
2019-03-09T02:32:36.509Z,99850.45
2019-03-09T02:35:07.905Z,99851.16
2019-03-09T02:37:37.450Z,99845.83
2019-03-09T02:40:17.018Z,99851.11
2019-03-09T02:42:46.494Z,99847.55
2019-03-09T02:45:17.027Z,99844.67
2019-03-09T02:47:46.562Z,99849.73
2019-03-09T02:50:16.220Z,99851.81
2019-03-09T02:52:45.669Z,99855.16
2019-03-09T02:55:15.155Z,99851.67
2019-03-09T02:57:44.732Z,99860.18
2019-03-09T03:00:16.145Z,99862.53
2019-03-09T03:02:49.321Z,99876.50
2019-03-09T03:05:18.697Z,99870.19
2019-03-09T03:07:48.148Z,99873.39
2019-03-09T03:10:18.090Z,99872.08
2019-03-09T03:12:47.595Z,99873.28
2019-03-09T03:15:35.312Z,99874.20
2019-03-09T03:18:04.866Z,99874.99
2019-03-09T03:20:34.363Z,99879.52
2019-03-09T03:23:03.923Z,99872.50
2019-03-09T03:25:33.307Z,99866.23
2019-03-09T03:28:02.852Z,99870.19
2019-03-09T03:30:32.422Z,99870.51
2019-03-09T03:33:01.964Z,99872.55
2019-03-09T03:35:31.365Z,99877.43
2019-03-09T03:38:00.854Z,99873.55
2019-03-09T03:40:30.355Z,99887.72
2019-03-09T03:42:59.814Z,99884.09
2019-03-09T03:45:29.239Z,99882.13
2019-03-09T03:47:58.690Z,99880.06
2019-03-09T03:50:28.170Z,99888.33
2019-03-09T03:52:57.647Z,99897.66
2019-03-09T03:55:27.035Z,99890.59
2019-03-09T03:57:56.587Z,99895.66
2019-03-09T04:00:26.057Z,99897.67
2019-03-09T04:02:55.601Z,99893.35
2019-03-09T04:05:25.088Z,99896.22
2019-03-09T04:07:54.550Z,99895.00
2019-03-09T04:10:23.936Z,99909.62
2019-03-09T04:12:53.412Z,99901.39
2019-03-09T04:15:23.032Z,99900.09
2019-03-09T04:17:52.452Z,99899.05
2019-03-09T04:20:21.838Z,99901.67
2019-03-09T04:22:51.318Z,99903.06
2019-03-09T04:25:20.808Z,99908.00
2019-03-09T04:27:50.212Z,99899.44
2019-03-09T04:30:19.671Z,99898.41
2019-03-09T04:32:49.110Z,99896.94
2019-03-09T04:35:18.691Z,99899.70
2019-03-09T04:37:48.181Z,99900.49
2019-03-09T04:40:17.726Z,99895.88
2019-03-09T04:42:47.149Z,99903.52
2019-03-09T04:45:16.572Z,99899.05
2019-03-09T04:47:46.981Z,99907.41
2019-03-09T04:50:16.833Z,99909.62
2019-03-09T04:52:46.213Z,99916.66
2019-03-09T04:55:15.597Z,99920.45
2019-03-09T04:57:45.117Z,99919.69
2019-03-09T05:00:15.157Z,99922.06
2019-03-09T05:02:45.762Z,99937.53
2019-03-09T05:05:15.187Z,99936.08
2019-03-09T05:08:18.594Z,99937.44
2019-03-09T05:11:04.024Z,99937.83
2019-03-09T05:13:56.235Z,99941.95
2019-03-09T05:16:25.660Z,99941.59
2019-03-09T05:18:55.141Z,99942.14
2019-03-09T05:21:24.534Z,99944.58
2019-03-09T05:23:54.066Z,99943.28
2019-03-09T05:26:23.547Z,99950.91
2019-03-09T05:28:52.940Z,99955.27
2019-03-09T05:31:22.376Z,99958.45
2019-03-09T05:33:51.871Z,99964.11
2019-03-09T05:36:21.350Z,99963.19
2019-03-09T05:38:51.277Z,99965.66
2019-03-09T05:41:20.748Z,99960.23
2019-03-09T05:43:50.270Z,99964.34
2019-03-09T05:46:19.813Z,99976.40
2019-03-09T05:48:49.195Z,99971.70
2019-03-09T05:51:18.600Z,99969.59
2019-03-09T05:53:48.128Z,99978.37
2019-03-09T05:56:17.611Z,99970.79
2019-03-09T05:58:47.011Z,99969.74
2019-03-09T06:01:16.537Z,99970.84
2019-03-09T06:03:45.926Z,99976.38
2019-03-09T06:06:18.877Z,99979.30
2019-03-09T06:08:49.802Z,99974.08
2019-03-09T06:11:19.405Z,99981.67
2019-03-09T06:13:48.786Z,99986.89
2019-03-09T06:16:18.251Z,99978.54
2019-03-09T06:18:47.746Z,99982.29
2019-03-09T06:21:17.356Z,99988.84
2019-03-09T06:23:46.797Z,100000.42
2019-03-09T06:26:16.195Z,100000.97
2019-03-09T06:28:45.698Z,99995.91
2019-03-09T06:31:15.299Z,100001.20
2019-03-09T06:33:46.205Z,100002.78
2019-03-09T06:36:52.954Z,99998.72
2019-03-09T06:39:24.996Z,100001.02
2019-03-09T06:42:24.732Z,99997.30
2019-03-09T06:44:54.243Z,99992.91
2019-03-09T06:47:23.799Z,99986.67
2019-03-09T06:49:53.511Z,99984.07
2019-03-09T06:52:22.930Z,99987.94
2019-03-09T06:54:52.454Z,99984.75
2019-03-09T06:57:21.945Z,99990.88
2019-03-09T06:59:51.350Z,99996.76
2019-03-09T07:02:20.746Z,100003.94
2019-03-09T07:04:50.283Z,99998.95
2019-03-09T07:07:19.775Z,100010.37
2019-03-09T07:09:49.220Z,100008.70
2019-03-09T07:12:20.717Z,100000.62
2019-03-09T07:15:22.377Z,100008.06
2019-03-09T07:17:57.335Z,99997.50
2019-03-09T07:20:26.704Z,99995.48
2019-03-09T07:22:56.203Z,99997.05
2019-03-09T07:25:25.630Z,99995.92
2019-03-09T07:28:08.972Z,99997.41
2019-03-09T07:30:38.679Z,99999.41
2019-03-09T07:33:08.288Z,100001.58
2019-03-09T07:35:37.775Z,100001.33
2019-03-09T07:38:07.314Z,100000.76
2019-03-09T07:40:37.025Z,99995.97
2019-03-09T07:43:06.533Z,99997.56
2019-03-09T07:45:35.983Z,99998.33
2019-03-09T07:48:05.507Z,99997.44
2019-03-09T07:50:35.107Z,99992.96
2019-03-09T07:53:04.875Z,99989.27
2019-03-09T07:55:34.272Z,99989.59
2019-03-09T07:58:05.530Z,99987.69
2019-03-09T08:00:35.195Z,99982.62
2019-03-09T08:03:05.391Z,99970.54
2019-03-09T08:05:34.885Z,99970.17
2019-03-09T08:08:04.508Z,99966.34
2019-03-09T08:10:33.945Z,99962.28
2019-03-09T08:13:03.370Z,99965.72
2019-03-09T08:15:32.917Z,99965.43
2019-03-09T08:18:02.389Z,99964.95
2019-03-09T08:20:31.843Z,99961.50
2019-03-09T08:23:01.336Z,99963.56
2019-03-09T08:25:30.853Z,99960.59
2019-03-09T08:28:01.198Z,99958.35
2019-03-09T08:30:30.632Z,99959.91
2019-03-09T08:33:00.000Z,99964.16
2019-03-09T08:35:29.513Z,99967.95
2019-03-09T08:37:59.029Z,99970.50
2019-03-09T08:40:28.426Z,99965.58
2019-03-09T08:42:57.930Z,99972.58
2019-03-09T08:45:27.420Z,99965.43
2019-03-09T08:47:56.954Z,99963.91
2019-03-09T08:50:26.321Z,99963.60
2019-03-09T08:52:55.764Z,99971.59
2019-03-09T08:55:25.270Z,99970.26
2019-03-09T08:57:54.848Z,99973.97
2019-03-09T09:00:30.418Z,99970.91
2019-03-09T09:03:00.232Z,99966.17
2019-03-09T09:05:29.700Z,99970.33
2019-03-09T09:07:59.264Z,99974.44
2019-03-09T09:10:28.740Z,99969.20
2019-03-09T09:12:58.528Z,99962.91
2019-03-09T09:15:28.207Z,99959.95
2019-03-09T09:17:57.849Z,99958.78
2019-03-09T09:20:27.311Z,99954.75
2019-03-09T09:22:56.909Z,99955.74
2019-03-09T09:25:26.359Z,99954.95
2019-03-09T09:27:56.303Z,99954.18
2019-03-09T09:30:27.251Z,99949.38
2019-03-09T09:32:56.844Z,99955.14
2019-03-09T09:35:26.416Z,99949.17
2019-03-09T09:37:55.862Z,99946.48
2019-03-09T09:40:25.464Z,99942.83
2019-03-09T09:42:55.229Z,99940.56
2019-03-09T09:45:24.949Z,99938.82
2019-03-09T09:47:54.453Z,99934.81
2019-03-09T09:50:23.933Z,99931.14
2019-03-09T09:52:53.445Z,99925.89
2019-03-09T09:55:22.845Z,99926.24
2019-03-09T09:57:52.224Z,99922.15
2019-03-09T10:00:23.668Z,99928.52
2019-03-09T10:02:53.053Z,99922.23
2019-03-09T10:05:22.926Z,99921.52
2019-03-09T10:07:52.695Z,99923.16
2019-03-09T10:10:22.075Z,99925.91
2019-03-09T10:12:51.834Z,99914.09
2019-03-09T10:15:23.381Z,99915.97
2019-03-09T10:17:53.048Z,99911.41
2019-03-09T10:20:22.563Z,99911.66
2019-03-09T10:22:52.051Z,99912.78
2019-03-09T10:25:21.615Z,99907.41
2019-03-09T10:27:51.160Z,99900.88
2019-03-09T10:30:21.695Z,99896.64
2019-03-09T10:32:51.306Z,99893.53
2019-03-09T10:35:21.064Z,99884.81
2019-03-09T10:37:50.685Z,99880.16
2019-03-09T10:40:20.483Z,99871.22
2019-03-09T10:42:49.957Z,99860.56
2019-03-09T10:45:19.522Z,99858.02
2019-03-09T10:47:48.915Z,99840.14
2019-03-09T10:50:18.561Z,99843.25
2019-03-09T10:52:48.170Z,99837.94
2019-03-09T10:55:19.265Z,99827.86
2019-03-09T10:57:48.782Z,99823.47
2019-03-09T11:00:26.943Z,99814.89
2019-03-09T11:02:56.410Z,99806.47
2019-03-09T11:05:25.898Z,99806.53
2019-03-09T11:07:57.844Z,99804.91
2019-03-09T11:10:27.806Z,99795.95
2019-03-09T11:12:57.314Z,99791.12
2019-03-09T11:15:27.062Z,99790.28
2019-03-09T11:17:56.444Z,99770.30
2019-03-09T11:20:25.920Z,99771.08
2019-03-09T11:22:55.339Z,99766.51
2019-03-09T11:25:24.802Z,99765.91
2019-03-09T11:27:54.350Z,99757.69
2019-03-09T11:30:25.881Z,99754.91
2019-03-09T11:32:55.254Z,99743.51
2019-03-09T11:35:24.706Z,99740.08
2019-03-09T11:37:54.231Z,99745.56
2019-03-09T11:40:23.612Z,99742.18
2019-03-09T11:42:52.978Z,99731.48
2019-03-09T11:45:22.596Z,99732.75
2019-03-09T11:47:52.089Z,99714.13
2019-03-09T11:50:21.464Z,99706.44
2019-03-09T11:52:50.865Z,99707.23
2019-03-09T11:55:20.458Z,99708.27
2019-03-09T11:57:49.933Z,99702.27
2019-03-09T12:00:23.861Z,99698.80
2019-03-09T12:02:53.331Z,99693.58
2019-03-09T12:05:22.710Z,99689.05
2019-03-09T12:07:52.131Z,99685.02
2019-03-09T12:10:21.679Z,99686.36
2019-03-09T12:12:51.146Z,99680.52
2019-03-09T12:15:20.569Z,99680.52
2019-03-09T12:17:50.774Z,99680.35
2019-03-09T12:20:22.030Z,99677.33
2019-03-09T12:22:51.517Z,99669.33
2019-03-09T12:25:20.894Z,99670.34
2019-03-09T12:27:50.270Z,99666.63
2019-03-09T12:30:19.877Z,99656.56
2019-03-09T12:32:50.695Z,99653.21
2019-03-09T12:35:20.075Z,99647.34
2019-03-09T12:37:49.485Z,99647.80
2019-03-09T12:40:19.076Z,99642.03
2019-03-09T12:42:48.630Z,99638.53
2019-03-09T12:45:18.259Z,99636.52
2019-03-09T12:47:47.737Z,99640.39
2019-03-09T12:50:18.018Z,99631.12
2019-03-09T12:52:47.414Z,99629.10
2019-03-09T12:55:16.904Z,99623.55
2019-03-09T12:57:46.511Z,99622.61
2019-03-09T13:00:17.540Z,99621.44
2019-03-09T13:02:46.951Z,99613.71
2019-03-09T13:05:18.629Z,99615.49
2019-03-09T13:07:48.142Z,99618.91
2019-03-09T13:10:17.929Z,99609.97
2019-03-09T13:12:47.427Z,99615.03
2019-03-09T13:15:17.132Z,99608.95
2019-03-09T13:17:46.614Z,99610.00
2019-03-09T13:20:16.147Z,99605.45
2019-03-09T13:22:45.743Z,99602.24
2019-03-09T13:25:15.413Z,99598.73
2019-03-09T13:27:44.774Z,99603.65
2019-03-09T13:30:16.558Z,99604.37
2019-03-09T13:32:46.024Z,99593.74
2019-03-09T13:35:15.401Z,99594.89
2019-03-09T13:37:44.920Z,99591.55
2019-03-09T13:40:14.979Z,99586.30
2019-03-09T13:42:44.747Z,99583.39
2019-03-09T13:45:14.693Z,99578.20
2019-03-09T13:47:44.087Z,99596.91
2019-03-09T13:50:13.715Z,99579.72
2019-03-09T13:52:43.366Z,99581.61
2019-03-09T13:55:12.940Z,99580.32
2019-03-09T13:57:42.448Z,99586.90
2019-03-09T14:00:13.221Z,99583.35
2019-03-09T14:02:42.720Z,99588.22
2019-03-09T14:05:12.217Z,99591.62
2019-03-09T14:07:41.820Z,99588.24
2019-03-09T14:10:11.959Z,99588.94
2019-03-09T14:12:41.560Z,99589.31
2019-03-09T14:15:12.783Z,99584.75
2019-03-09T14:17:42.338Z,99584.95
2019-03-09T14:20:12.225Z,99588.30
2019-03-09T14:22:41.887Z,99583.73
2019-03-09T14:25:11.723Z,99580.05
2019-03-09T14:27:41.124Z,99573.59
2019-03-09T14:30:12.989Z,99576.13
2019-03-09T14:32:42.463Z,99576.80
2019-03-09T14:35:11.876Z,99575.94
2019-03-09T14:37:41.301Z,99569.16
2019-03-09T14:40:11.870Z,99572.00
2019-03-09T14:42:41.284Z,99568.59
2019-03-09T14:45:14.115Z,99572.13
2019-03-09T14:47:43.624Z,99568.22
2019-03-09T14:50:13.250Z,99566.03
2019-03-09T14:52:42.717Z,99563.16
2019-03-09T14:55:12.459Z,99569.23
2019-03-09T14:57:41.977Z,99561.14
2019-03-09T15:00:14.803Z,99569.57
2019-03-09T15:02:44.213Z,99567.04
2019-03-09T15:05:14.005Z,99564.34
2019-03-09T15:07:43.550Z,99557.36
2019-03-09T15:10:13.053Z,99556.48
2019-03-09T15:12:42.427Z,99565.19
2019-03-09T15:15:12.908Z,99568.36
2019-03-09T15:17:42.376Z,99573.20
2019-03-09T15:20:11.894Z,99570.95
2019-03-09T15:22:41.436Z,99571.61
2019-03-09T15:25:11.540Z,99577.94
2019-03-09T15:27:40.934Z,99575.18
2019-03-09T15:30:12.417Z,99582.73
2019-03-09T15:32:41.897Z,99590.05
2019-03-09T15:35:11.483Z,99586.59
2019-03-09T15:37:40.911Z,99581.13
2019-03-09T15:40:10.973Z,99575.22
2019-03-09T15:42:40.562Z,99575.72
2019-03-09T15:45:11.175Z,99564.27
2019-03-09T15:47:40.613Z,99555.48
2019-03-09T15:50:11.251Z,99552.92
2019-03-09T15:52:40.878Z,99559.39
2019-03-09T15:55:10.415Z,99568.80
2019-03-09T15:57:39.819Z,99562.94
2019-03-09T16:00:12.990Z,99569.47
2019-03-09T16:02:42.375Z,99569.32
2019-03-09T16:05:11.967Z,99559.78
2019-03-09T16:07:41.598Z,99573.49
2019-03-09T16:10:12.374Z,99575.81
2019-03-09T16:12:41.748Z,99573.20
2019-03-09T16:15:12.467Z,99572.32
2019-03-09T16:17:42.006Z,99569.13
2019-03-09T16:20:13.478Z,99573.04
2019-03-09T16:22:43.005Z,99567.97
2019-03-09T16:25:12.723Z,99568.25
2019-03-09T16:27:42.448Z,99570.25
2019-03-09T16:30:14.942Z,99572.02
2019-03-09T16:32:44.344Z,99566.06
2019-03-09T16:35:13.831Z,99559.47
2019-03-09T16:37:43.352Z,99562.28
2019-03-09T16:40:13.317Z,99564.95
2019-03-09T16:42:42.949Z,99570.14
2019-03-09T16:45:12.591Z,99571.11
2019-03-09T16:47:42.162Z,99573.23
2019-03-09T16:50:12.481Z,99573.17
2019-03-09T16:52:42.019Z,99581.23
2019-03-09T16:55:11.640Z,99575.27
2019-03-09T16:57:41.045Z,99572.18
2019-03-09T17:00:14.126Z,99577.48
2019-03-09T17:02:43.601Z,99578.41
2019-03-09T17:05:13.801Z,99584.76
2019-03-09T17:07:43.301Z,99584.81
2019-03-09T17:10:13.945Z,99589.82
2019-03-09T17:12:43.453Z,99590.16
2019-03-09T17:15:13.903Z,99594.95
2019-03-09T17:17:43.508Z,99591.09
2019-03-09T17:20:13.386Z,99596.47
2019-03-09T17:22:42.846Z,99593.84
2019-03-09T17:25:12.532Z,99594.83
2019-03-09T17:27:42.043Z,99599.69
2019-03-09T17:30:13.933Z,99599.69
2019-03-09T17:32:43.332Z,99593.57
2019-03-09T17:35:13.627Z,99597.67
2019-03-09T17:37:43.273Z,99602.44
2019-03-09T17:40:12.830Z,99598.43
2019-03-09T17:42:42.364Z,99597.75
2019-03-09T17:45:14.769Z,99604.16
2019-03-09T17:47:46.563Z,99598.00
2019-03-09T17:50:15.972Z,99598.00
2019-03-09T17:52:45.538Z,99592.79
2019-03-09T17:55:15.205Z,99594.25
2019-03-09T17:57:44.707Z,99598.88
2019-03-09T18:00:19.681Z,99594.89
2019-03-09T18:02:49.586Z,99589.63
2019-03-09T18:05:19.939Z,99597.92
2019-03-09T18:07:50.171Z,99595.95
2019-03-09T18:10:29.705Z,99593.06
2019-03-09T18:12:59.386Z,99593.08
2019-03-09T18:15:28.868Z,99582.86
2019-03-09T18:17:58.368Z,99583.34
2019-03-09T18:20:27.933Z,99586.26
2019-03-09T18:22:57.592Z,99588.20
2019-03-09T18:25:27.159Z,99585.64
2019-03-09T18:27:56.583Z,99584.20
2019-03-09T18:30:26.078Z,99584.06
2019-03-09T18:32:55.557Z,99583.11
2019-03-09T18:35:25.005Z,99586.97
2019-03-09T18:37:55.509Z,99581.02
2019-03-09T18:40:25.012Z,99583.44
2019-03-09T18:42:54.440Z,99580.02
2019-03-09T18:45:23.924Z,99583.80
2019-03-09T18:47:53.454Z,99588.48
2019-03-09T18:50:23.019Z,99595.94
2019-03-09T18:52:52.451Z,99594.81
2019-03-09T18:55:21.936Z,99591.52
2019-03-09T18:57:51.533Z,99595.09
2019-03-09T19:00:21.170Z,99598.37
2019-03-09T19:02:50.813Z,99598.85
2019-03-09T19:05:20.352Z,99599.95
2019-03-09T19:07:49.838Z,99606.19
2019-03-09T19:10:19.242Z,99600.25
2019-03-09T19:12:48.697Z,99614.31
2019-03-09T19:15:18.941Z,99630.67
2019-03-09T19:17:48.667Z,99613.95
2019-03-09T19:20:18.092Z,99627.57
2019-03-09T19:22:49.254Z,99633.52
2019-03-09T19:25:21.484Z,99628.70
2019-03-09T19:27:50.953Z,99627.80
2019-03-09T19:30:20.364Z,99626.83
2019-03-09T19:32:59.533Z,99632.27
2019-03-09T19:35:21.133Z,99633.08
2019-03-09T19:37:50.654Z,99625.93
2019-03-09T19:40:20.130Z,99631.86
2019-03-09T19:42:49.648Z,99634.16
2019-03-09T19:45:19.833Z,99638.59
2019-03-09T19:47:50.205Z,99635.91
2019-03-09T19:50:20.043Z,99637.45
2019-03-09T19:52:49.856Z,99636.64
2019-03-09T19:55:19.494Z,99644.41
2019-03-09T19:57:49.560Z,99651.64
2019-03-09T20:00:19.101Z,99645.90
2019-03-09T20:02:48.656Z,99646.38
2019-03-09T20:05:18.611Z,99648.08
2019-03-09T20:07:48.263Z,99652.81
2019-03-09T20:10:17.793Z,99647.16
2019-03-09T20:12:47.321Z,99647.05
2019-03-09T20:15:17.676Z,99659.83
2019-03-09T20:17:47.170Z,99670.48
2019-03-09T20:20:16.681Z,99671.31
2019-03-09T20:22:46.177Z,99677.12
2019-03-09T20:25:15.652Z,99670.52
2019-03-09T20:27:45.096Z,99666.88
2019-03-09T20:30:16.526Z,99670.45
2019-03-09T20:32:46.090Z,99672.37
2019-03-09T20:35:15.498Z,99668.60
2019-03-09T20:37:45.030Z,99666.88
2019-03-09T20:40:14.808Z,99670.78
2019-03-09T20:42:44.229Z,99669.98
2019-03-09T20:45:14.906Z,99669.27
2019-03-09T20:47:44.491Z,99669.65
2019-03-09T20:50:14.876Z,99679.48
2019-03-09T20:52:44.414Z,99674.39
2019-03-09T20:55:15.149Z,99671.44
2019-03-09T20:57:44.639Z,99684.48
2019-03-09T21:00:17.675Z,99678.78
2019-03-09T21:02:47.128Z,99690.97
2019-03-09T21:05:16.835Z,99682.86
2019-03-09T21:07:46.300Z,99677.67
2019-03-09T21:10:16.440Z,99685.89
2019-03-09T21:12:56.800Z,99677.25
2019-03-09T21:15:26.323Z,99682.56
2019-03-09T21:17:55.929Z,99678.02
2019-03-09T21:20:25.568Z,99673.45
2019-03-09T21:22:55.118Z,99672.89
2019-03-09T21:25:24.510Z,99672.52
2019-03-09T21:27:53.908Z,99665.52
2019-03-09T21:30:23.440Z,99670.77
2019-03-09T21:32:52.935Z,99669.91
2019-03-09T21:35:22.343Z,99669.14
2019-03-09T21:37:51.788Z,99669.14
2019-03-09T21:40:21.370Z,99666.67
2019-03-09T21:42:50.873Z,99668.16
2019-03-09T21:45:20.309Z,99666.83
2019-03-09T21:47:49.716Z,99672.52
2019-03-09T21:50:19.233Z,99673.47
2019-03-09T21:52:48.777Z,99663.95
2019-03-09T21:55:18.196Z,99668.98
2019-03-09T21:57:47.591Z,99663.11
2019-03-09T22:00:17.163Z,99671.01
2019-03-09T22:02:46.661Z,99668.72
2019-03-09T22:05:16.041Z,99670.29
2019-03-09T22:07:45.485Z,99666.83
2019-03-09T22:10:15.243Z,99677.91
2019-03-09T22:12:44.799Z,99668.55
2019-03-09T22:15:14.209Z,99673.49
2019-03-09T22:17:43.611Z,99669.39
2019-03-09T22:20:13.289Z,99668.28
2019-03-09T22:22:44.057Z,99669.16
2019-03-09T22:25:13.896Z,99669.59
2019-03-09T22:27:43.306Z,99669.44
2019-03-09T22:30:13.543Z,99666.00
2019-03-09T22:32:43.034Z,99665.53
2019-03-09T22:35:12.840Z,99665.72
2019-03-09T22:37:42.263Z,99662.87
2019-03-09T22:40:12.127Z,99658.98
2019-03-09T22:42:41.503Z,99654.63
2019-03-09T22:45:11.701Z,99652.83
2019-03-09T22:47:41.199Z,99650.67
2019-03-09T22:50:12.116Z,99653.28
2019-03-09T22:52:41.563Z,99651.55
2019-03-09T22:55:11.600Z,99655.53
2019-03-09T22:57:41.088Z,99661.52
2019-03-09T23:00:14.156Z,99664.45
2019-03-09T23:02:44.987Z,99661.73
2019-03-09T23:05:15.342Z,99659.41
2019-03-09T23:07:44.891Z,99666.05
2019-03-09T23:10:15.543Z,99670.41
2019-03-09T23:12:44.944Z,99661.59
2019-03-09T23:15:15.446Z,99661.59
2019-03-09T23:17:45.060Z,99664.66
2019-03-09T23:20:14.733Z,99667.22
2019-03-09T23:22:44.470Z,99676.30
2019-03-09T23:25:14.779Z,99674.43
2019-03-09T23:27:44.194Z,99679.16
2019-03-09T23:30:16.174Z,99676.09
2019-03-09T23:32:45.992Z,99675.41
2019-03-09T23:35:15.954Z,99676.62
2019-03-09T23:37:46.386Z,99692.34
2019-03-09T23:40:16.621Z,99694.47
2019-03-09T23:42:46.100Z,99687.84
2019-03-09T23:45:16.527Z,99687.29
2019-03-09T23:47:46.047Z,99690.42
2019-03-09T23:50:16.449Z,99691.34
2019-03-09T23:52:46.183Z,99687.66
2019-03-09T23:55:21.991Z,99690.05
2019-03-09T23:57:47.573Z,99699.34
